createdAt,value
2023-02-03T00:02:02.242Z,0.89
2023-02-03T00:04:46.759Z,0.89
2023-02-03T00:07:31.814Z,0.92
2023-02-03T00:10:20.932Z,0.91
2023-02-03T00:13:06.806Z,0.90
2023-02-03T00:15:52.057Z,0.91
2023-02-03T00:18:37.168Z,0.89
2023-02-03T00:21:21.995Z,0.91
2023-02-03T00:24:06.834Z,0.87
2023-02-03T00:26:51.951Z,0.90
2023-02-03T00:29:36.821Z,0.86
2023-02-03T00:32:21.495Z,0.87
2023-02-03T00:35:06.421Z,0.89
2023-02-03T00:37:52.903Z,0.89
2023-02-03T00:40:39.339Z,0.90
2023-02-03T00:43:23.744Z,0.90
2023-02-03T00:46:08.711Z,0.90
2023-02-03T00:48:53.439Z,0.92
2023-02-03T00:51:38.140Z,0.90
2023-02-03T00:54:22.850Z,0.89
2023-02-03T00:57:07.835Z,0.90
2023-02-03T00:59:53.629Z,0.90
2023-02-03T01:02:38.333Z,0.91
2023-02-03T01:05:23.240Z,0.91
2023-02-03T01:08:07.687Z,0.91
2023-02-03T01:10:52.448Z,0.91
2023-02-03T01:13:38.170Z,0.91
2023-02-03T01:16:28.654Z,0.90
2023-02-03T01:19:14.183Z,0.87
2023-02-03T01:21:58.977Z,0.84
2023-02-03T01:24:44.003Z,0.81
2023-02-03T01:27:32.295Z,0.81
2023-02-03T01:30:17.293Z,0.82
2023-02-03T01:33:02.115Z,0.79
2023-02-03T01:35:46.719Z,0.76
2023-02-03T01:38:31.253Z,0.74
2023-02-03T01:41:19.710Z,0.70
2023-02-03T01:44:35.278Z,0.66
2023-02-03T01:47:25.870Z,0.62
2023-02-03T01:50:13.754Z,0.55
2023-02-03T01:53:03.066Z,0.50
2023-02-03T01:55:50.274Z,0.50
2023-02-03T01:58:39.157Z,0.45
2023-02-03T02:01:23.897Z,0.44
2023-02-03T02:04:09.961Z,0.42
2023-02-03T02:06:57.621Z,0.36
2023-02-03T02:09:45.307Z,0.30
2023-02-03T02:12:29.769Z,0.25
2023-02-03T02:15:15.508Z,0.16
2023-02-03T02:18:37.859Z,0.07
2023-02-03T02:21:49.891Z,-0.01
2023-02-03T02:25:02.983Z,-0.06
2023-02-03T02:28:11.204Z,-0.09
2023-02-03T02:31:19.677Z,-0.11
2023-02-03T02:34:09.312Z,-0.12
2023-02-03T02:37:01.740Z,-0.10
2023-02-03T02:39:55.513Z,-0.12
2023-02-03T02:43:01.154Z,-0.10
2023-02-03T02:46:01.285Z,-0.10
2023-02-03T02:48:54.404Z,-0.11
2023-02-03T02:51:43.180Z,-0.15
2023-02-03T02:54:30.665Z,-0.15
2023-02-03T02:57:18.398Z,-0.16
2023-02-03T03:00:53.903Z,-0.19
2023-02-03T03:03:42.238Z,-0.21
2023-02-03T03:06:34.434Z,-0.23
2023-02-03T03:09:27.033Z,-0.25
2023-02-03T03:12:35.242Z,-0.30
2023-02-03T03:15:25.316Z,-0.34
2023-02-03T03:18:21.261Z,-0.34
2023-02-03T03:21:07.356Z,-0.36
2023-02-03T03:23:56.739Z,-0.38
2023-02-03T03:26:52.695Z,-0.35
2023-02-03T03:29:47.183Z,-0.38
2023-02-03T03:32:32.620Z,-0.39
2023-02-03T03:35:18.773Z,-0.42
2023-02-03T03:38:12.423Z,-0.46
2023-02-03T03:41:30.053Z,-0.53
2023-02-03T03:44:16.678Z,-0.52
2023-02-03T03:47:24.099Z,-0.49
2023-02-03T03:50:15.247Z,-0.47
2023-02-03T03:53:02.421Z,-0.47
2023-02-03T03:55:51.271Z,-0.48
2023-02-03T03:58:39.981Z,-0.47
2023-02-03T04:01:25.885Z,-0.48
2023-02-03T04:04:11.742Z,-0.50
2023-02-03T04:06:56.621Z,-0.50
2023-02-03T04:09:42.298Z,-0.49
2023-02-03T04:12:27.287Z,-0.55
2023-02-03T04:15:11.829Z,-0.60
2023-02-03T04:17:56.891Z,-0.64
2023-02-03T04:20:41.807Z,-0.65
2023-02-03T04:23:26.354Z,-0.69
2023-02-03T04:26:11.017Z,-0.73
2023-02-03T04:28:55.765Z,-0.75
2023-02-03T04:31:40.883Z,-0.76
2023-02-03T04:34:25.416Z,-0.74
2023-02-03T04:37:10.246Z,-0.74
2023-02-03T04:39:55.679Z,-0.77
2023-02-03T04:42:40.829Z,-0.78
2023-02-03T04:45:25.605Z,-0.79
2023-02-03T04:48:10.746Z,-0.81
2023-02-03T04:51:01.215Z,-0.81
2023-02-03T04:53:45.763Z,-0.78
2023-02-03T04:56:30.459Z,-0.78
2023-02-03T04:59:15.279Z,-0.78
2023-02-03T05:02:03.446Z,-0.77
2023-02-03T05:04:48.019Z,-0.77
2023-02-03T05:07:33.142Z,-0.73
2023-02-03T05:10:17.719Z,-0.71
2023-02-03T05:13:03.000Z,-0.71
2023-02-03T05:15:47.639Z,-0.69
2023-02-03T05:18:32.519Z,-0.68
2023-02-03T05:21:17.621Z,-0.71
2023-02-03T05:24:06.248Z,-0.70
2023-02-03T05:26:51.076Z,-0.70
2023-02-03T05:29:35.574Z,-0.68
2023-02-03T05:32:20.365Z,-0.66
2023-02-03T05:35:05.280Z,-0.68
2023-02-03T05:37:49.964Z,-0.68
2023-02-03T05:40:53.155Z,-0.69
2023-02-03T05:43:37.964Z,-0.67
2023-02-03T05:46:23.205Z,-0.66
2023-02-03T05:49:07.798Z,-0.67
2023-02-03T05:51:53.339Z,-0.67
2023-02-03T05:54:37.996Z,-0.69
2023-02-03T05:57:22.835Z,-0.66
2023-02-03T06:00:08.129Z,-0.69
2023-02-03T06:02:59.195Z,-0.65
2023-02-03T06:05:45.623Z,-0.65
2023-02-03T06:11:26.172Z,-0.63
2023-02-03T06:14:21.550Z,-0.62
2023-02-03T06:17:06.566Z,-0.68
2023-02-03T06:20:16.652Z,-0.61
2023-02-03T06:23:03.894Z,-0.72
2023-02-03T06:25:51.579Z,-0.59
2023-02-03T06:28:42.406Z,-0.54
2023-02-03T06:31:35.922Z,-0.54
2023-02-03T06:34:31.135Z,-0.51
2023-02-03T06:37:16.058Z,-0.51
2023-02-03T06:40:02.027Z,-0.51
2023-02-03T06:42:47.748Z,-0.55
2023-02-03T06:45:33.961Z,-0.60
2023-02-03T06:48:18.979Z,-0.67
2023-02-03T06:51:05.078Z,-0.59
2023-02-03T06:53:50.263Z,-0.63
2023-02-03T06:56:34.962Z,-0.64
2023-02-03T06:59:19.724Z,-0.69
2023-02-03T07:02:04.639Z,-0.71
2023-02-03T07:04:49.454Z,-0.74
2023-02-03T07:07:37.415Z,-0.66
2023-02-03T07:10:22.594Z,-0.43
2023-02-03T07:13:07.405Z,-0.40
2023-02-03T07:15:57.577Z,-0.46
2023-02-03T07:18:47.641Z,-0.40
2023-02-03T07:21:39.695Z,-0.07
2023-02-03T07:24:25.725Z,0.23
2023-02-03T07:27:16.485Z,0.45
2023-02-03T07:30:02.476Z,0.66
2023-02-03T07:32:52.406Z,0.54
2023-02-03T07:35:38.560Z,0.62
2023-02-03T07:41:37.009Z,0.43
2023-02-03T07:44:28.730Z,0.66
2023-02-03T07:47:20.374Z,0.95
2023-02-03T07:50:06.115Z,0.83
2023-02-03T07:52:58.288Z,0.95
2023-02-03T07:55:51.384Z,0.81
2023-02-03T07:58:36.402Z,0.66
2023-02-03T08:01:25.639Z,0.32
2023-02-03T08:04:15.885Z,0.26
2023-02-03T08:07:07.892Z,0.30
2023-02-03T08:10:34.795Z,-0.13
2023-02-03T08:13:48.260Z,-0.29
2023-02-03T08:16:38.746Z,-0.41
2023-02-03T08:19:29.468Z,-0.29
2023-02-03T08:22:17.434Z,-0.24
2023-02-03T08:25:03.318Z,-0.22
2023-02-03T08:28:07.944Z,-0.27
2023-02-03T08:31:03.761Z,-0.30
2023-02-03T08:33:48.848Z,0.04
2023-02-03T08:36:33.832Z,-0.07
2023-02-03T08:39:18.822Z,-0.17
2023-02-03T08:42:04.259Z,-0.26
2023-02-03T08:44:49.060Z,-0.33
2023-02-03T08:47:41.171Z,-0.52
2023-02-03T08:50:29.167Z,-0.50
2023-02-03T08:53:14.267Z,-0.45
2023-02-03T08:56:03.947Z,-0.40
2023-02-03T08:58:48.584Z,-0.41
2023-02-03T09:01:35.101Z,-0.34
2023-02-03T09:04:24.066Z,-0.30
2023-02-03T09:07:10.655Z,-0.19
2023-02-03T09:09:56.934Z,-0.11
2023-02-03T09:12:41.888Z,-0.20
2023-02-03T09:15:27.133Z,-0.27
2023-02-03T09:18:12.147Z,-0.33
2023-02-03T09:21:20.790Z,-0.39
2023-02-03T09:24:12.525Z,-0.61
2023-02-03T09:26:57.702Z,-0.79
2023-02-03T09:29:42.468Z,-0.81
2023-02-03T09:32:27.733Z,-0.80
2023-02-03T09:35:12.756Z,-0.87
2023-02-03T09:37:57.938Z,-0.88
2023-02-03T09:40:43.690Z,-0.86
2023-02-03T09:43:28.841Z,-0.82
2023-02-03T09:46:48.422Z,-0.79
2023-02-03T09:49:38.274Z,-0.66
2023-02-03T09:52:36.268Z,-0.58
2023-02-03T09:55:42.594Z,-0.53
2023-02-03T09:58:33.181Z,-0.43
2023-02-03T10:01:19.580Z,-0.31
2023-02-03T10:04:12.145Z,-0.29
2023-02-03T10:07:15.461Z,-0.19
2023-02-03T10:10:25.876Z,-0.26
2023-02-03T10:13:28.278Z,-0.25
2023-02-03T10:16:43.874Z,-0.20
2023-02-03T10:19:56.116Z,-0.09
2023-02-03T10:22:51.782Z,-0.11
2023-02-03T10:26:01.231Z,-0.23
2023-02-03T10:29:04.622Z,-0.13
2023-02-03T10:31:50.077Z,0.00
2023-02-03T10:34:36.589Z,0.05
2023-02-03T10:37:30.621Z,0.10
2023-02-03T10:40:17.290Z,-0.02
2023-02-03T10:43:21.321Z,-0.12
2023-02-03T10:46:06.840Z,-0.12
2023-02-03T10:48:52.435Z,-0.09
2023-02-03T10:51:42.494Z,-0.16
2023-02-03T10:54:31.445Z,-0.23
2023-02-03T10:57:17.404Z,-0.40
2023-02-03T11:00:28.374Z,-0.39
2023-02-03T11:03:30.180Z,-0.68
2023-02-03T11:06:17.130Z,-0.67
2023-02-03T11:09:02.480Z,-0.85
2023-02-03T11:11:47.575Z,-0.86
2023-02-03T11:14:36.918Z,-0.88
2023-02-03T11:17:28.886Z,-0.85
2023-02-03T11:20:16.212Z,-0.94
2023-02-03T11:23:03.862Z,-0.95
2023-02-03T11:25:48.613Z,-0.92
2023-02-03T11:28:33.654Z,-0.89
2023-02-03T11:31:28.458Z,-0.88
2023-02-03T11:34:23.831Z,-0.82
2023-02-03T11:37:37.830Z,-0.79
2023-02-03T11:40:37.874Z,-0.83
2023-02-03T11:43:22.634Z,-0.83
2023-02-03T11:46:09.192Z,-0.85
2023-02-03T11:49:10.285Z,-0.87
2023-02-03T11:52:02.502Z,-0.80
2023-02-03T11:55:16.353Z,-0.83
2023-02-03T11:58:18.413Z,-0.88
2023-02-03T12:01:25.141Z,-0.87
2023-02-03T12:04:22.090Z,-0.85
2023-02-03T12:07:16.158Z,-0.85
2023-02-03T12:10:12.070Z,-0.88
2023-02-03T12:12:57.015Z,-0.85
2023-02-03T12:15:55.717Z,-0.79
2023-02-03T12:19:13.083Z,-0.81
2023-02-03T12:22:22.434Z,-0.86
2023-02-03T12:25:44.858Z,-0.90
2023-02-03T12:28:54.774Z,-0.91
2023-02-03T12:31:47.529Z,-0.87
2023-02-03T12:34:55.903Z,-0.84
2023-02-03T12:38:02.852Z,-0.77
2023-02-03T12:40:53.951Z,-0.84
2023-02-03T12:43:48.850Z,-0.90
2023-02-03T12:46:45.476Z,-1.05
2023-02-03T12:49:38.984Z,-1.18
2023-02-03T12:52:34.277Z,-1.18
2023-02-03T12:55:25.303Z,-1.08
2023-02-03T12:58:13.218Z,-1.02
2023-02-03T13:01:10.175Z,-1.04
2023-02-03T13:04:10.153Z,-1.03
2023-02-03T13:07:28.490Z,-1.05
2023-02-03T13:10:27.289Z,-0.99
2023-02-03T13:13:17.194Z,-1.04
2023-02-03T13:16:09.181Z,-1.01
2023-02-03T13:18:59.373Z,-1.03
2023-02-03T13:21:46.041Z,-0.99
2023-02-03T13:24:31.527Z,-1.00
2023-02-03T13:27:42.410Z,-1.06
2023-02-03T13:30:36.731Z,-1.07
2023-02-03T13:33:47.323Z,-1.14
2023-02-03T13:36:53.942Z,-1.16
2023-02-03T13:39:52.498Z,-1.18
2023-02-03T13:42:45.197Z,-1.19
2023-02-03T13:45:40.559Z,-1.25
2023-02-03T13:48:32.388Z,-1.30
2023-02-03T13:51:23.685Z,-1.26
2023-02-03T13:54:14.225Z,-1.23
2023-02-03T13:57:02.191Z,-1.28
2023-02-03T13:59:49.118Z,-1.30
2023-02-03T14:03:14.871Z,-1.28
2023-02-03T14:06:01.175Z,-1.26
2023-02-03T14:08:48.762Z,-1.24
2023-02-03T14:11:37.775Z,-1.25
2023-02-03T14:14:22.918Z,-1.26
2023-02-03T14:17:42.353Z,-1.27
2023-02-03T14:20:27.209Z,-1.30
2023-02-03T14:23:38.683Z,-1.34
2023-02-03T14:26:46.838Z,-1.40
2023-02-03T14:29:35.432Z,-1.42
2023-02-03T14:32:20.780Z,-1.42
2023-02-03T14:35:17.134Z,-1.45
2023-02-03T14:38:06.060Z,-1.46
2023-02-03T14:40:57.827Z,-1.52
2023-02-03T14:43:54.187Z,-1.49
2023-02-03T14:46:53.625Z,-1.51
2023-02-03T14:50:00.416Z,-1.54
2023-02-03T14:53:03.443Z,-1.56
2023-02-03T14:55:57.337Z,-1.59
2023-02-03T14:58:48.065Z,-1.62
2023-02-03T15:01:35.827Z,-1.63
2023-02-03T15:04:22.551Z,-1.69
2023-02-03T15:07:07.520Z,-1.73
2023-02-03T15:09:52.952Z,-1.69
2023-02-03T15:12:37.844Z,-1.72
2023-02-03T15:15:31.596Z,-1.71
2023-02-03T15:18:27.401Z,-1.73
2023-02-03T15:21:18.639Z,-1.73
2023-02-03T15:24:14.148Z,-1.73
2023-02-03T15:26:58.728Z,-1.70
2023-02-03T15:29:43.380Z,-1.71
2023-02-03T15:32:33.659Z,-1.71
2023-02-03T15:35:20.462Z,-1.74
2023-02-03T15:38:13.589Z,-1.73
2023-02-03T15:40:58.746Z,-1.74
2023-02-03T15:43:46.044Z,-1.75
2023-02-03T15:46:40.365Z,-1.77
2023-02-03T15:49:28.272Z,-1.79
2023-02-03T15:52:20.489Z,-1.87
2023-02-03T15:55:35.713Z,-1.89
2023-02-03T15:58:24.356Z,-1.96
2023-02-03T16:01:16.972Z,-2.00
2023-02-03T16:04:11.060Z,-2.04
2023-02-03T16:06:56.946Z,-2.06
2023-02-03T16:09:41.900Z,-2.10
2023-02-03T16:12:27.499Z,-2.15
2023-02-03T16:15:23.240Z,-2.23
2023-02-03T16:18:17.511Z,-2.26
2023-02-03T16:21:04.695Z,-2.24
2023-02-03T16:23:49.726Z,-2.24
2023-02-03T16:26:37.753Z,-2.23
2023-02-03T16:29:48.089Z,-2.17
2023-02-03T16:32:51.591Z,-2.11
2023-02-03T16:35:55.250Z,-2.10
2023-02-03T16:39:06.219Z,-2.12
2023-02-03T16:42:16.683Z,-2.16
2023-02-03T16:45:21.486Z,-2.20
2023-02-03T16:48:27.846Z,-2.23
2023-02-03T16:51:15.427Z,-2.21
2023-02-03T16:54:00.104Z,-2.20
2023-02-03T16:56:45.254Z,-2.15
2023-02-03T16:59:30.545Z,-2.19
2023-02-03T17:02:15.819Z,-2.15
2023-02-03T17:05:01.832Z,-2.17
2023-02-03T17:07:47.061Z,-2.15
2023-02-03T17:10:37.348Z,-2.12
2023-02-03T17:13:22.493Z,-2.14
2023-02-03T17:16:10.499Z,-2.15
2023-02-03T17:18:55.656Z,-2.14
2023-02-03T17:21:40.210Z,-2.12
2023-02-03T17:24:25.128Z,-2.10
2023-02-03T17:27:10.028Z,-2.10
2023-02-03T17:29:54.795Z,-2.11
2023-02-03T17:32:39.538Z,-2.10
2023-02-03T17:35:24.138Z,-2.12
2023-02-03T17:38:10.915Z,-2.15
2023-02-03T17:55:54.289Z,-2.53
2023-02-03T17:58:40.087Z,-2.66
2023-02-03T18:01:26.032Z,-2.85
2023-02-03T18:04:10.534Z,-3.04
2023-02-03T18:06:56.350Z,-3.21
2023-02-03T18:09:41.132Z,-3.39
2023-02-03T18:12:26.263Z,-3.55
2023-02-03T18:15:11.229Z,-3.76
2023-02-03T18:17:55.837Z,-3.93
2023-02-03T18:20:40.936Z,-4.09
2023-02-03T18:23:25.699Z,-4.26
2023-02-03T18:26:11.596Z,-4.40
2023-02-03T18:28:56.432Z,-4.59
2023-02-03T18:31:41.749Z,-4.76
2023-02-03T18:34:26.357Z,-4.85
2023-02-03T18:37:11.681Z,-4.94
2023-02-03T18:39:56.632Z,-5.03
2023-02-03T18:42:41.841Z,-5.03
2023-02-03T18:45:26.747Z,-5.02
2023-02-03T18:48:11.821Z,-5.02
2023-02-03T18:50:56.604Z,-5.09
2023-02-03T18:53:41.618Z,-5.16
2023-02-03T18:56:34.453Z,-5.21
2023-02-03T18:59:19.274Z,-5.32
2023-02-03T19:02:04.093Z,-5.42
2023-02-03T19:04:49.218Z,-5.52
2023-02-03T19:07:34.135Z,-5.57
2023-02-03T19:10:19.148Z,-5.65
2023-02-03T19:13:04.177Z,-5.65
2023-02-03T19:15:50.988Z,-5.55
2023-02-03T19:18:35.964Z,-5.41
2023-02-03T19:21:20.760Z,-5.22
2023-02-03T19:24:06.723Z,-5.02
2023-02-03T19:26:52.372Z,-4.81
2023-02-03T19:29:38.407Z,-4.59
2023-02-03T19:32:23.129Z,-4.41
2023-02-03T19:35:08.349Z,-4.29
2023-02-03T19:37:55.700Z,-4.14
2023-02-03T19:40:40.694Z,-4.02
2023-02-03T19:43:25.315Z,-3.95
2023-02-03T19:46:12.791Z,-3.83
2023-02-03T19:48:57.721Z,-3.72
2023-02-03T19:51:43.235Z,-3.61
2023-02-03T19:54:28.252Z,-3.52
2023-02-03T19:57:13.158Z,-3.41
2023-02-03T19:59:58.209Z,-3.31
2023-02-03T20:02:43.144Z,-3.23
2023-02-03T20:05:29.597Z,-3.15
2023-02-03T20:08:16.314Z,-3.10
2023-02-03T20:11:02.221Z,-3.03
2023-02-03T20:13:47.331Z,-3.01
2023-02-03T20:16:31.915Z,-2.97
2023-02-03T20:19:18.503Z,-2.95
2023-02-03T20:22:03.642Z,-2.93
2023-02-03T20:24:48.178Z,-2.87
2023-02-03T20:27:33.203Z,-2.84
2023-02-03T20:30:18.166Z,-2.82
2023-02-03T20:33:04.173Z,-2.79
2023-02-03T20:35:49.517Z,-2.78
2023-02-03T20:38:34.719Z,-2.78
2023-02-03T20:41:19.419Z,-2.76
2023-02-03T20:44:11.563Z,-2.83
2023-02-03T20:46:56.739Z,-3.01
2023-02-03T20:49:42.119Z,-3.24
2023-02-03T20:52:26.640Z,-3.52
2023-02-03T20:55:12.391Z,-3.79
2023-02-03T20:57:57.167Z,-4.02
2023-02-03T21:00:41.735Z,-4.17
2023-02-03T21:03:45.257Z,-4.25
2023-02-03T21:06:32.923Z,-4.30
2023-02-03T21:09:20.321Z,-4.32
2023-02-03T21:12:13.097Z,-4.32
2023-02-03T21:14:58.122Z,-4.33
2023-02-03T21:17:42.982Z,-4.34
2023-02-03T21:20:31.255Z,-4.37
2023-02-03T21:23:17.731Z,-4.42
2023-02-03T21:26:22.887Z,-4.49
2023-02-03T21:29:36.250Z,-4.61
2023-02-03T21:32:20.883Z,-4.59
2023-02-03T21:35:27.951Z,-4.60
2023-02-03T21:38:39.013Z,-4.61
2023-02-03T21:41:25.096Z,-4.62
2023-02-03T21:44:25.512Z,-4.63
2023-02-03T21:47:18.146Z,-4.64
2023-02-03T21:50:02.879Z,-4.61
2023-02-03T21:52:47.710Z,-4.59
2023-02-03T21:55:33.085Z,-4.62
2023-02-03T21:58:25.341Z,-4.68
2023-02-03T22:01:15.819Z,-4.77
2023-02-03T22:04:01.772Z,-4.88
2023-02-03T22:06:49.721Z,-4.95
2023-02-03T22:09:34.340Z,-5.03
2023-02-03T22:12:19.249Z,-5.13
2023-02-03T22:15:04.738Z,-5.19
2023-02-03T22:17:50.446Z,-5.26
2023-02-03T22:20:35.158Z,-5.34
2023-02-03T22:23:20.591Z,-5.39
2023-02-03T22:26:05.846Z,-5.43
2023-02-03T22:28:51.058Z,-5.49
2023-02-03T22:31:36.076Z,-5.51
2023-02-03T22:34:22.441Z,-5.53
2023-02-03T22:37:07.319Z,-5.53
2023-02-03T22:39:52.000Z,-5.52
2023-02-03T22:42:36.913Z,-5.51
2023-02-03T22:45:21.768Z,-5.50
2023-02-03T22:48:06.722Z,-5.48
2023-02-03T22:50:52.533Z,-5.43
2023-02-03T22:53:38.839Z,-5.41
2023-02-03T22:56:23.807Z,-5.37
2023-02-03T22:59:08.773Z,-5.34
2023-02-03T23:01:53.882Z,-5.28
2023-02-03T23:04:38.660Z,-5.23
2023-02-03T23:07:23.518Z,-5.19
2023-02-03T23:10:11.856Z,-5.18
2023-02-03T23:12:58.059Z,-5.16
2023-02-03T23:15:43.226Z,-5.15
2023-02-03T23:18:28.103Z,-5.13
2023-02-03T23:21:13.100Z,-5.15
2023-02-03T23:23:58.004Z,-5.15
2023-02-03T23:26:43.112Z,-5.17
2023-02-03T23:29:28.228Z,-5.21
2023-02-03T23:32:13.348Z,-5.30
2023-02-03T23:35:16.307Z,-5.25
2023-02-03T23:38:01.023Z,-5.28
2023-02-03T23:40:47.526Z,-5.29
2023-02-03T23:43:32.217Z,-5.31
2023-02-03T23:46:17.302Z,-5.36
2023-02-03T23:49:02.171Z,-5.38
2023-02-03T23:51:46.819Z,-5.43
2023-02-03T23:54:31.754Z,-5.49
2023-02-03T23:57:16.631Z,-5.55
